Tiempo atmosférico en la estación meteorológica de Pamplona Aeropuerto, Navarra (459 m.)



Fecha
DESCASC
Temp. máxima en grados centígrados (hora)
DESCASC
Temp. mínima en grados centígrados (hora)
DESCASC
Temp. media en grados centígrados
DESCASC
Racha de viento máxima en m/sg (hora)
DESCASC
Velocidad máxima media en intervalos de 10 minutos(hora)
DESCASC
Precipitaciones diarias en mm
DESCASC
Precipitaciones de 00:00 a 06:00 en mm
DESCASC
Precipitaciones de 06:00 a 12:00 en mm
DESCASC
Precipitaciones de 12:00 a 18:00 en mm
DESCASC
Precipitaciones de 18:00 a 24:00 en mm
DESCASC
22-11-2020 13.1 (15:30) -2.5 (08:10) 5.3 3.06 (19:40) 2.5 (19:50) 0 0 0 0 0
21-11-2020 14.7 (15:30) 0.8 (08:10) 7.7 10.28 (02:00) 6.67 (02:00) 0 0 0 0 0
20-11-2020 11.7 (13:50) 4.8 (22:10) 8.3 13.33 (15:50) 8.61 (16:20) 0 0 0 0 0
19-11-2020 15.9 (12:10) 4 (00:00) 9.9 13.33 (16:40) 8.61 (16:40) 0 0 0 0 0
18-11-2020 17.5 (15:20) 2.1 (00:00) 9.8 3.06 (14:30) 2.5 (20:30) 0 0 0 0 0
17-11-2020 15.8 (15:30) 2.6 (00:00) 9.2 3.06 (12:20) 2.5 (18:40) 0 0 0 0 0
16-11-2020 14.2 (13:50) 5 (00:00) 9.6 8.89 (15:00) 6.39 (15:00) 0 0 0 0 0
15-11-2020 16.4 (14:30) 6.9 (00:00) 11.6 9.72 (20:40) 5.83 (20:40) 3.7 0 0 0 3.7
14-11-2020 12.9 (15:50) 2.5 (00:00) 7.7 4.17 (14:30) 2.78 (17:20) 0 0 0 0 0
13-11-2020 12.8 (16:30) 5.3 (00:00) 9.1 4.17 (15:10) 2.78 (08:50) 0 0 0 0 0
12-11-2020 14.3 (14:20) 6.6 (00:00) 10.5 5.83 (14:50) 3.89 (14:50) 0 0 0 0 0
11-11-2020 14.7 (14:00) 2.8 (00:00) 8.7 5.83 (13:30) 3.33 (13:50) 0 0 0 0 0
10-11-2020 17.1 (14:10) 4 (00:00) 10.6 8.33 (13:00) 6.11 (13:20) 0 0 0 0 0
09-11-2020 16.2 (15:30) 6.8 (00:00) 11.5 8.89 (02:10) 5.28 (02:10) 0.3 0 0.1 0.2 0
08-11-2020 16 (13:50) 7.2 (00:00) 11.6 8.89 (11:50) 6.11 (12:10) 0 0 0 0 0
07-11-2020 17.6 (04:00) 10.7 (00:00) 14.2 20.56 (07:40) 13.61 (06:40) 18.2 0 13.9 0.5 3.8
06-11-2020 18.7 (13:30) 11.8 (00:00) 15.3 17.5 (17:50) 11.67 (17:50) 0.1 0.1 0 0 0
05-11-2020 17.2 (14:10) 5.6 (00:00) 11.4 9.72 (21:40) 5.83 (14:30) 0 0 0 0 0
04-11-2020 11.1 (12:10) 4.7 (00:00) 7.9 7.78 (15:10) 6.39 (15:10) 0 0 0 0 0
03-11-2020 13.5 (13:50) 6.6 (00:00) 10 11.39 (13:30) 7.78 (17:50) 0.2 0.1 0.1 0 0
02-11-2020 22.9 (14:30) 9.4 (00:00) 16.1 11.67 (17:50) 8.33 (18:00) 0 0 0 0 0
01-11-2020 22.8 (15:00) 7.2 (00:00) 15 5.83 (16:20) 3.89 (16:40) 0 0 0 0 0
31-10-2020 21.1 (16:40) 3.7 (00:00) 12.4 5 (16:20) 4.17 (16:40) 0 0 0 0 0
30-10-2020 -- (--) -- (--) -- -- (--) -- (--) -- 0 -- 0 0
29-10-2020 19.9 (15:50) 6.1 (00:00) 13 3.61 (13:20) 2.78 (19:20) 0 0 0 0 0
28-10-2020 18.2 (15:40) 8.2 (00:00) 13.2 7.22 (17:50) 5 (18:00) 0 0 0 0 0
27-10-2020 15.1 (15:10) 3.7 (00:00) 9.4 8.33 (17:50) 5.28 (15:20) 0 0 0 0 0
26-10-2020 12.2 (13:10) 5.1 (00:00) 8.6 10.83 (15:30) 6.39 (15:30) 1 0 0.2 0.8 0

Gráficas

Temp. máximas Temp. mínimas Temp. medias Precipitaciones Rachas de viento máximas Velocidades máximas media en intervalos de 10 minutos

Datos horarios

Fecha y hora oficial Temperatura (ºC) Velocidad del viento (km/h) Dirección del viento Racha (km/h) Dirección de racha Precipitación (mm) Presión (hPa) Tendencia (hPa) Humedad (%)
2020-11-24 23:00:00 2.8 3 Este 5 Este 0 965.9 -0.6 93
2020-11-24 22:00:00 3.3 5 Sudeste 8 Sur 0 966 -0.4 92
2020-11-24 21:00:00 3.9 3 Sur 9 Sur 0 966.2 0 89
2020-11-24 20:00:00 4.8 6 Sur 9 Sur 0 966.5 -- 85
2020-11-24 19:00:00 6 11 Sur 13 Sudeste 0 966.4 -- 80
2020-11-24 18:00:00 8.1 0 Calma 5 Noroeste 0 966.2 -- 76
2020-11-24 17:00:00 9.7 4 Oeste 11 Oeste 0 966.3 -- 70
2020-11-24 16:00:00 10.8 0 Calma 5 Sudeste 0 966.4 -- 62
2020-11-24 15:00:00 11.3 2 Sur 8 Este 0 967.1 -- 61
2020-11-24 14:00:00 11.1 3 Este 9 Noroeste 0 968.1 -- 62
2020-11-24 13:00:00 9.9 4 Nordeste 8 Este 0 968.8 -- 63
2020-11-24 12:00:00 8.4 4 Norte 9 Nordeste 0 969.9 -- 70
2020-11-24 11:00:00 5.8 3 Nordeste 5 Este 0 970.7 -- 81
2020-11-24 10:00:00 3.5 3 Sur 8 Sur 0 970.7 -- 89
2020-11-24 09:00:00 0 0 Calma -- -- 0 970.7 -- 96
2020-11-24 08:00:00 -0.9 4 Sur -- -- 0 970.5 -- 96
2020-11-24 07:00:00 -0.8 2 Sudeste -- -- 0 970.4 -- 97
2020-11-24 06:00:00 -0.9 2 Sudeste 5 Sudeste 0 970.6 -- 96
2020-11-24 05:00:00 -0.6 4 Sur 8 Sur 0 970.7 -- 96
2020-11-24 04:00:00 -0.1 2 Sur 5 Sur 0 971.2 -- 95
2020-11-24 03:00:00 0.3 2 Sur 5 Sur 0 971.6 -- 93
2020-11-24 02:00:00 1.1 2 Sur 5 Sur 0 972 -- 94
2020-11-24 01:00:00 -- -- -- -- -- -- -- -- --
2020-11-24 00:00:00 2 0 Calma 8 Sur 0 972.9 -- 88
2020-11-23 23:00:00 2.7 6 Sur 8 Sur 0 973.2 -- 87
2020-11-23 22:00:00 3 4 Sur 9 Sur 0 973.4 -- 85
2020-11-23 21:00:00 3.8 3 Sur 9 Sur 0 973.2 -- 85
2020-11-23 20:00:00 4.6 6 Sudeste 8 Sudeste 0 973.3 -- 82
2020-11-23 19:00:00 6 7 Sur 8 Sur 0 973 -- 79
2020-11-23 18:00:00 8.7 5 Sur 5 Sur 0 972.8 -- 68
2020-11-23 17:00:00 11.5 0 Calma 5 Noroeste 0 972.6 -- 51
2020-11-23 16:00:00 12.2 5 Noroeste 9 Noroeste 0 972.8 -- 51
2020-11-23 15:00:00 11.8 4 Oeste 9 Oeste 0 973.2 -- 55
2020-11-23 14:00:00 11.3 3 Oeste 8 Oeste 0 973.9 -- 59
2020-11-23 13:00:00 9 4 Oeste 8 Norte 0 974.6 -- 67
2020-11-23 12:00:00 6.7 4 Noroeste 8 Noroeste 0 975.6 -- 73
2020-11-23 11:00:00 4.1 3 Norte 8 Este 0 975.9 -- 80
2020-11-23 10:00:00 2.2 0 Calma 5 Este 0 975.8 -- 85
2020-11-23 09:00:00 -1.1 2 Oeste 4 Sudoeste 0 975.4 -- 95
2020-11-23 08:00:00 -2.5 0 Calma 5 Sur 0 975 -- 96
2020-11-23 07:00:00 -2 0 Calma 4 Nordeste 0 974.8 -- 95
2020-11-23 06:00:00 -1.2 4 Sudeste 5 Sudeste 0 974.6 -- 95
2020-11-23 05:00:00 -1.3 3 Sur 5 Sur 0 975 -- 95
2020-11-23 04:00:00 -1.2 0 Calma 4 Sudeste 0 975 -- 95
2020-11-23 03:00:00 -0.9 3 Oeste 4 Noroeste 0 975 -- 94
2020-11-23 02:00:00 -0.2 0 Calma -- -- 0 975.2 -- 93
2020-11-23 01:00:00 0.6 5 Sur 8 Sur 0 975.2 -- 91
2020-11-23 00:00:00 0.6 4 Sur 5 Sudeste 0 975 -- 91
2020-11-22 23:00:00 1.4 4 Sur -- -- -- 975 -- 88
2020-11-22 22:00:00 1.7 6 Sur 9 Sur 0 974.8 -- 87
2020-11-22 21:00:00 2.5 8 Sur 9 Sur 0 974.7 -- 84
2020-11-22 20:00:00 3.9 8 Sur 11 Sur 0 974.2 -- 82
2020-11-22 19:00:00 5.6 5 Sur 8 Sur 0 973.8 -- 76
2020-11-22 18:00:00 7.9 -- -- -- -- 0 973.3 -- 66
2020-11-22 17:00:00 12.5 0 Calma 4 Nordeste 0 972.9 -- 49
2020-11-22 16:00:00 12.1 0 Calma 5 Este 0 972.8 -- 50
2020-11-22 15:00:00 11.6 3 Nordeste 8 Nordeste 0 973 -- 53
2020-11-22 14:00:00 11 3 Nordeste 9 Este 0 973.6 -- 51
2020-11-22 13:00:00 9.7 3 Este 9 Este 0 974.4 -- 59
2020-11-22 12:00:00 7.5 2 Este 5 Este 0 975.3 -- 64
2020-11-22 11:00:00 5.1 2 Oeste 8 Noroeste 0 975.8 -- 73
2020-11-22 10:00:00 3.1 3 Sur 5 Sur 0 975.7 -- 82
2020-11-22 09:00:00 -0.5 0 Calma 5 Nordeste 0 975.7 -- 93
2020-11-22 08:00:00 -1.8 0 Calma 5 Nordeste 0 975.3 -- 94
2020-11-22 07:00:00 -1.4 3 Oeste 5 Sur 0 975 -- 93
2020-11-22 06:00:00 -1.4 0 Calma 5 Sudeste 0 974.9 -- 92
2020-11-22 05:00:00 -1.3 3 Este 4 Este 0 974.9 -- 93
2020-11-22 04:00:00 -1.3 5 Sur 5 Sur 0 975 -- 90
2020-11-22 03:00:00 -0.5 2 Sur 9 Sudeste 0 975.1 -- 91
2020-11-22 02:00:00 -0.6 0 Calma 5 Sudeste 0 975.1 -- 90
2020-11-22 01:00:00 0.4 0 Calma 5 Sur 0 975.2 -- 88
2020-11-22 00:00:00 1.1 4 Sur -- -- 0 975.3 -- 86
2020-11-21 23:00:00 1.7 2 Sur 8 Sudeste 0 975.4 -- 84
2020-11-21 22:00:00 3 6 Sur 13 Sur 0 975.6 -- 79
2020-11-21 21:00:00 3.8 4 Sudeste 11 Sudeste 0 975.4 -- 73
2020-11-21 20:00:00 6.7 4 Sudeste 13 Sudeste 0 975.2 -- 59
2020-11-21 19:00:00 6.9 6 Este 11 Sur 0 974.6 -- 59
2020-11-21 18:00:00 9.2 0 Calma 11 Sur 0 974.2 -- 55
2020-11-21 17:00:00 13.3 8 Noroeste 11 Oeste 0 974 -- 38
2020-11-21 16:00:00 13.9 2 Este 15 Sudeste 0 973.8 -- 31
2020-11-21 15:00:00 14.3 3 Sur 11 Sur 0 974.2 -- 28
2020-11-21 14:00:00 12.6 3 Norte 8 Nordeste 0 974.6 -- 34
2020-11-21 13:00:00 11.7 3 Este 15 Oeste 0 975.1 -- 35
2020-11-21 12:00:00 10.9 5 Sur 11 Sudeste 0 975.9 -- 43
2020-11-21 11:00:00 8.7 3 Este 9 Este 0 976.1 -- 48
2020-11-21 10:00:00 6.3 3 Norte 11 Sudeste 0 975.9 -- 60
2020-11-21 09:00:00 3 3 Sudeste 11 Sur 0 975.4 -- 73
2020-11-21 08:00:00 1.1 3 Sur 13 Sudeste 0 975.2 -- 78
2020-11-21 07:00:00 1.1 11 Sudeste 13 Sudeste 0 974.9 -- 80
2020-11-21 06:00:00 2.3 8 Noroeste 13 Noroeste 0 975 -- 75
2020-11-21 05:00:00 3.2 9 Noroeste 32 Norte 0 975.3 -- 72
2020-11-21 04:00:00 4.4 17 Norte 28 Norte 0 975.9 -- 68
2020-11-21 03:00:00 4.2 12 Noroeste 26 Noroeste 0 976.2 -- 71
2020-11-21 02:00:00 4.6 24 Norte 37 Norte 0 976.7 -- 71
2020-11-21 01:00:00 4.7 15 Norte 28 Norte 0 977.3 -- 73
2020-11-21 00:00:00 5 21 Norte 32 Noroeste 0 977.5 -- 74
2020-11-20 23:00:00 5.2 21 Noroeste 30 Noroeste 0 978.2 -- 76
2020-11-20 22:00:00 5 12 Noroeste 22 Noroeste 0 978.4 -- 77
2020-11-20 21:00:00 5.5 17 Noroeste 28 Norte 0 978.2 -- 77
2020-11-20 20:00:00 5.9 18 Noroeste 33 Norte 0 978.5 -- 73
2020-11-20 19:00:00 6.6 22 Norte 35 Norte 0 978.7 -- 69
2020-11-20 18:00:00 7.4 23 Norte 41 Norte 0 979.1 -- 63
2020-11-20 17:00:00 -- -- -- -- -- -- -- -- --
2020-11-20 16:00:00 9.7 30 Norte 48 Norte 0 978.4 -- 49
2020-11-20 15:00:00 10.6 30 Norte 45 Norte 0 978.5 -- 48
2020-11-20 14:00:00 11.2 27 Noroeste 42 Noroeste 0 979.2 -- 55
2020-11-20 13:00:00 11.2 23 Noroeste -- -- -- 979.9 -- 58
2020-11-20 12:00:00 10.8 25 Norte 41 Norte 0 980.5 -- 58
2020-11-20 11:00:00 9.7 24 Norte 35 Norte 0 980.8 -- 64
2020-11-20 10:00:00 10.2 14 Noroeste 30 Norte 0 981 -- 62
2020-11-20 09:00:00 8.3 13 Noroeste 26 Noroeste 0 981.1 -- 75
2020-11-20 08:00:00 7 17 Noroeste 24 Noroeste 0 980.8 -- 89
2020-11-20 07:00:00 6.9 18 Noroeste 30 Norte 0 980.6 -- 91
2020-11-20 06:00:00 7.1 21 Norte 32 Norte 0 980.6 -- 87
2020-11-20 05:00:00 6.9 21 Norte 30 Norte 0 980.9 -- 80
2020-11-20 04:00:00 6.7 18 Norte 26 Norte 0 981.3 -- 82
2020-11-20 03:00:00 6.6 17 Norte 24 Norte 0 981.7 -- 83
2020-11-20 02:00:00 7.4 14 Norte 32 Norte 0 981.8 -- 80
2020-11-20 01:00:00 8.1 12 Norte 24 Norte 0 982.7 -- 75
2020-11-20 00:00:00 8.4 17 Norte 32 Norte 0 982.8 -- 77
2020-11-19 23:00:00 8.6 23 Norte 42 Norte 0 982.9 -- 75
2020-11-19 22:00:00 9.1 27 Norte 41 Norte 0 982.6 -- 72
2020-11-19 21:00:00 8.7 18 Norte 26 Norte 0 982.5 -- 81
2020-11-19 20:00:00 8.5 14 Norte 35 Noroeste 0 982.3 -- 84
2020-11-19 19:00:00 8.4 14 Norte 33 Norte 0 982.1 -- 82
2020-11-19 18:00:00 9.3 17 Norte 37 Norte 0 981.9 -- 79
2020-11-19 17:00:00 10.5 24 Norte 48 Norte 0 981.6 -- 77
2020-11-19 16:00:00 11.7 26 Norte 39 Noroeste 0 981.3 -- 75
2020-11-19 15:00:00 12.8 24 Norte 41 Norte 0 980.3 -- 79
2020-11-19 14:00:00 13.4 27 Noroeste 37 Norte 0 980.2 -- 76
2020-11-19 13:00:00 14.1 29 Norte 41 Norte 0 980.4 -- 76
2020-11-19 12:00:00 14.8 24 Norte 39 Norte 0 980.4 -- 75
2020-11-19 11:00:00 13.6 22 Norte 32 Norte 0 980.4 -- 88
2020-11-19 10:00:00 9.3 7 Norte 15 Norte 0 980.2 -- 99
2020-11-19 09:00:00 6.5 7 Sudeste 11 Sudeste 0 979.6 -- 99
2020-11-19 08:00:00 4.9 5 Sur 9 Sur 0 978.6 -- 98
2020-11-19 07:00:00 4.7 4 Sudeste 8 Sur 0 978.4 -- 99
2020-11-19 06:00:00 4.2 4 Sur 8 Sudeste 0 977.6 -- 98
2020-11-19 05:00:00 4.7 5 Nordeste -- -- 0 977.1 -- 98
2020-11-19 04:00:00 4.9 3 Este 8 Este 0 977 -- 98
2020-11-19 03:00:00 5.6 0 Calma 5 Sur 0 976.5 -- 98
2020-11-19 02:00:00 5.8 5 Sur 8 Sur 0 976.3 -- 97
2020-11-19 01:00:00 6.6 5 Este -- -- 0 976.5 -- 97
2020-11-19 00:00:00 6.7 2 Sur 4 Sur 0 976.4 -- 97
2020-11-18 23:00:00 7 0 Calma -- -- 0 975.8 -- 95
2020-11-18 22:00:00 8.3 0 Calma 8 Sur 0 975.2 -- 94
2020-11-18 21:00:00 8.6 7 Sur 11 Sur 0 974.4 -- 93
2020-11-18 20:00:00 9.9 6 Sudeste 9 Sudeste 0 973.9 -- 90
2020-11-18 19:00:00 11.1 4 Sur 8 Sudoeste 0 973.5 -- 87
2020-11-18 18:00:00 12.9 -- -- -- -- 0 973.2 -- 82
2020-11-18 17:00:00 16.9 3 Noroeste 4 Noroeste 0 973 -- 63
2020-11-18 16:00:00 16.7 0 Calma 8 Sudeste 0 973 -- 62
2020-11-18 15:00:00 17 3 Este 11 Nordeste 0 973.1 -- 60
2020-11-18 14:00:00 16 5 Sudeste 9 Este 0 973.6 -- 64
2020-11-18 13:00:00 14.6 3 Este 9 Este 0 974.1 -- 66
2020-11-18 12:00:00 13.1 4 Sudeste 9 Sur 0 975 -- 71
2020-11-18 11:00:00 9.6 3 Nordeste 8 Nordeste 0 975.1 -- 79
2020-11-18 10:00:00 7.2 0 Calma 5 Nordeste 0 975 -- 88
2020-11-18 09:00:00 4.3 2 Este 5 Este 0 974.5 -- 97
2020-11-18 08:00:00 2.4 4 Sur 9 Sur 0 974 -- 98
2020-11-18 07:00:00 3 0 Calma 8 Nordeste 0 973.7 -- 98
2020-11-18 06:00:00 2.6 7 Sudoeste 9 Sudoeste 0 973.2 -- 97
2020-11-18 05:00:00 3.3 4 Este 9 Sur 0 973 -- 97
2020-11-18 04:00:00 3.1 0 Calma 9 Sudeste 0 973.1 -- 97
2020-11-18 03:00:00 3.5 4 Este 8 Este 0 973.4 -- 96
2020-11-18 02:00:00 4 4 Sur 9 Sur 0 973.4 -- 96
2020-11-18 01:00:00 4.6 3 Este 5 Este 0 973.7 -- 95
2020-11-18 00:00:00 5.1 0 Calma 8 Sur 0 973.7 -- 96
2020-11-17 23:00:00 5.8 0 Calma 5 Sur 0 973.8 -- 95
2020-11-17 22:00:00 6.7 5 Sur 8 Sur 0 973.6 -- 91
2020-11-17 21:00:00 7.9 2 Este 5 Sudeste 0 973.2 -- 90
2020-11-17 20:00:00 8.2 5 Sur 11 Sur 0 973 -- 88
2020-11-17 19:00:00 9.8 6 Sur 9 Sudeste 0 972.5 -- 83
2020-11-17 18:00:00 11.8 8 Sudeste 11 Sudeste 0 972 -- 72
2020-11-17 17:00:00 15.4 8 Oeste 11 Oeste 0 972 -- 62
2020-11-17 16:00:00 14.8 2 Norte 8 Noroeste 0 972 -- 58
2020-11-17 15:00:00 14.3 2 Oeste 8 Noroeste 0 972.2 -- 62
2020-11-17 14:00:00 13.3 4 Oeste 9 Este 0 972.5 -- 65
2020-11-17 13:00:00 13 3 Este 11 Oeste 0 972.9 -- 62
2020-11-17 12:00:00 11.4 2 Oeste 9 Oeste 0 973.7 -- 68
2020-11-17 11:00:00 9.2 0 Calma 4 Noroeste 0 973.9 -- 78
2020-11-17 10:00:00 7.3 0 Calma 8 Oeste 0 974.2 -- 87
2020-11-17 09:00:00 4 5 Oeste 8 Oeste 0 974 -- 97
2020-11-17 08:00:00 2.7 4 Sudeste 5 Sudeste 0 973.2 -- 97
2020-11-17 07:00:00 3 0 Calma 8 Sudeste 0 973 -- 97
2020-11-17 06:00:00 3.3 3 Sudeste 8 Oeste 0 972.9 -- 97
2020-11-17 05:00:00 3.9 2 Norte 5 Norte 0 972.7 -- 97
2020-11-17 04:00:00 4 0 Calma 8 Sur 0 973 -- 96
2020-11-17 03:00:00 4.1 0 Calma 8 Nordeste 0 973.3 -- 96
2020-11-17 02:00:00 4.7 5 Sudeste 9 Sudeste 0 973.5 -- 95
2020-11-17 01:00:00 5.2 2 Sudeste 9 Sudeste 0 973.7 -- 95
2020-11-17 00:00:00 5.4 5 Sudoeste 9 Sur 0 973.6 -- 94
2020-11-16 23:00:00 6.1 5 Oeste 13 Noroeste 0 974 -- 90
2020-11-16 22:00:00 6.7 6 Oeste 9 Oeste 0 973.7 -- 90
2020-11-16 21:00:00 7.9 0 Calma 15 Oeste 0 973.3 -- 87
2020-11-16 20:00:00 8.6 12 Noroeste 17 Norte 0 973.3 -- 84
2020-11-16 19:00:00 9.3 11 Noroeste 17 Noroeste 0 973 -- 80
2020-11-16 18:00:00 10.5 15 Norte 22 Nordeste 0 972.7 -- 72
2020-11-16 17:00:00 11.7 14 Norte 28 Norte 0 972.4 -- 67
2020-11-16 16:00:00 12.6 19 Norte 32 Norte 0 972.4 -- 64
2020-11-16 15:00:00 12.7 23 Norte 32 Norte 0 972.4 -- 65
2020-11-16 14:00:00 13.7 17 Norte 24 Norte 0 972.2 -- 66
2020-11-16 13:00:00 13 13 Norte 26 Nordeste 0 972.1 -- 67
2020-11-16 12:00:00 12.7 17 Norte 28 Norte 0 972.8 -- 70
2020-11-16 11:00:00 12.2 9 Noroeste -- -- -- 972.3 -- 83
2020-11-16 10:00:00 11 12 Noroeste 17 Norte 0 972.2 -- 87
2020-11-16 09:00:00 10.3 12 Noroeste 18 Noroeste 0 971.7 -- 89
2020-11-16 08:00:00 10.1 12 Noroeste 18 Norte 0 971.1 -- 92
2020-11-16 07:00:00 10.1 18 Norte 24 Norte 0 970.3 -- 91
2020-11-16 06:00:00 10.3 0 Calma 13 Norte 0 969.8 -- 89
2020-11-16 05:00:00 10.1 6 Noroeste 13 Nordeste 0 969.7 -- 89
2020-11-16 04:00:00 10.4 8 Norte 13 Norte 0 969.5 -- 89
2020-11-16 03:00:00 10.6 10 Noroeste 17 Noroeste 0 969.3 -- 89
2020-11-16 02:00:00 10.4 9 Noroeste 17 Noroeste 0 969 -- 90
2020-11-16 01:00:00 11 9 Noroeste 22 Norte 0 968.8 -- 89
2020-11-16 00:00:00 11.6 13 Norte 24 Norte 0 968.5 -- 88
2020-11-15 23:00:00 11.9 13 Norte 24 Norte 0.1 967.9 -- 92
2020-11-15 22:00:00 12.3 5 Oeste 11 Norte 1.5 967.1 -- 97
2020-11-15 21:00:00 12.7 10 Norte 35 Norte 2.1 966.3 -- 95
2020-11-15 20:00:00 13.5 4 Nordeste 13 Nordeste 0 964.8 -- 90
2020-11-15 19:00:00 13.8 8 Norte 15 Norte 0 964.3 -- 86
2020-11-15 18:00:00 13.9 3 Este 11 Nordeste 0 964 -- 84
2020-11-15 17:00:00 14.4 0 Calma -- -- 0 964.1 -- 82
2020-11-15 16:00:00 14.6 5 Norte 9 Noroeste 0 964.1 -- 80
2020-11-15 15:00:00 15.6 4 Este 15 Nordeste 0 964.1 -- 76
2020-11-15 14:00:00 15.6 3 Oeste 13 Norte 0 964.1 -- 75
2020-11-15 13:00:00 15.1 5 Noroeste 13 Noroeste 0 964.6 -- 75
2020-11-15 12:00:00 13.7 6 Norte 11 Nordeste 0 965 -- 80
2020-11-15 11:00:00 11.8 5 Este 15 Nordeste 0 965.5 -- 88
2020-11-15 10:00:00 11 9 Nordeste 21 Noroeste 0 965.2 -- 91
2020-11-15 09:00:00 8.3 7 Norte 11 Noroeste 0 965.2 -- 98
2020-11-15 08:00:00 7.3 4 Sudeste 11 Sudoeste 0 964.9 -- 98
2020-11-15 07:00:00 7.5 6 Noroeste 13 Este 0 964.8 -- 98
2020-11-15 06:00:00 7.4 8 Sur 11 Sur 0 965.3 -- 98
2020-11-15 05:00:00 8 9 Nordeste 15 Nordeste 0 964.9 -- 98
2020-11-15 04:00:00 8.1 6 Norte 11 Norte 0 965.1 -- 98
2020-11-15 03:00:00 8.2 7 Norte 13 Norte 0 965.2 -- 98
2020-11-15 02:00:00 7.9 2 Sur 11 Sudeste 0 965.4 -- 96
2020-11-15 01:00:00 8.8 4 Nordeste 15 Sudeste 0 966.2 -- 98
2020-11-15 00:00:00 8.2 3 Sudeste 11 Oeste 0 966.4 -- 98
2020-11-14 23:00:00 8.1 4 Noroeste 9 Sudeste 0 966.7 -- 98
2020-11-14 22:00:00 7.5 4 Sudeste 11 Norte 0 966.7 -- 97
2020-11-14 21:00:00 8.5 4 Este 9 Este 0 966.5 -- 97
2020-11-14 20:00:00 8.8 5 Este 9 Nordeste 0 966.8 -- 96
2020-11-14 19:00:00 9.3 3 Nordeste 11 Norte 0 966.3 -- 94
2020-11-14 18:00:00 10.5 9 Noroeste 15 Noroeste 0 965.9 -- 90
2020-11-14 17:00:00 12.8 5 Oeste 13 Este 0 965.6 -- 84
2020-11-14 16:00:00 12.6 6 Norte 11 Norte 0 966.1 -- 83
2020-11-14 15:00:00 12.1 5 Sudeste 15 Sudeste 0 966.6 -- 85
2020-11-14 14:00:00 12.2 5 Norte 11 Noroeste 0 967.2 -- 86
2020-11-14 13:00:00 11.5 6 Noroeste 9 Noroeste 0 967.6 -- 85
2020-11-14 12:00:00 9.9 4 Noroeste 8 Noroeste 0 968 -- 93
2020-11-14 11:00:00 7.9 2 Norte 8 Este 0 968.4 -- 98
2020-11-14 10:00:00 6.6 4 Este 9 Este 0 968.4 -- 99
2020-11-14 09:00:00 4.1 4 Sudeste 8 Sudeste 0 968.3 -- 99
2020-11-14 08:00:00 3.5 5 Sudeste 8 Sudeste 0 967.6 -- 99
2020-11-14 07:00:00 3.2 0 Calma 5 Sur 0 967.3 -- 99
2020-11-14 06:00:00 3.3 4 Sudeste 11 Sudeste 0 967.1 -- 99
2020-11-14 05:00:00 2.6 3 Noroeste 8 Oeste 0 966.9 -- 99
2020-11-14 04:00:00 2.9 0 Calma 13 Oeste 0 967.3 -- 99
2020-11-14 03:00:00 3.4 4 Sur 8 Sur 0 967.7 -- 99
2020-11-14 02:00:00 3.7 3 Sudoeste 5 Sudoeste 0 968 -- 98
2020-11-14 01:00:00 4.4 -- -- -- -- 0 968.5 -- 98
2020-11-14 00:00:00 5.4 0 Calma 9 Sudeste 0 968.7 -- 97
2020-11-13 23:00:00 6.2 7 Sudeste 11 Este 0 968.7 -- 96
2020-11-13 22:00:00 6.8 5 Este 9 Nordeste 0 968.3 -- 96
2020-11-13 21:00:00 7.2 4 Este 8 Este 0 968 -- 95
2020-11-13 20:00:00 7.7 5 Nordeste 8 Nordeste 0 968 -- 94
2020-11-13 19:00:00 8.3 4 Nordeste -- -- 0 967.7 -- 92
2020-11-13 18:00:00 9.3 5 Norte 11 Noroeste 0 967.3 -- 89
2020-11-13 17:00:00 11.5 9 Noroeste 11 Noroeste 0 967.3 -- 81
2020-11-13 16:00:00 12.4 5 Norte 15 Norte 0 967.2 -- 76
2020-11-13 15:00:00 12.3 6 Norte 13 Norte 0 967.7 -- 77
2020-11-13 14:00:00 12.5 7 Noroeste 13 Oeste 0 968 -- 76
2020-11-13 13:00:00 10.5 5 Nordeste 9 Nordeste 0 968.4 -- 84
2020-11-13 12:00:00 8.9 0 Calma 8 Este 0 969.2 -- 92
2020-11-13 11:00:00 7.7 2 Este 9 Nordeste 0 969.5 -- 98
2020-11-13 10:00:00 7.1 3 Nordeste 9 Nordeste 0 969.6 -- 99
2020-11-13 09:00:00 6.9 9 Este 13 Este 0 969.1 -- 99
2020-11-13 08:00:00 7.1 6 Este 9 Este 0 968.7 -- 99
2020-11-13 07:00:00 7.1 3 Este 8 Este 0 968.1 -- 98
2020-11-13 06:00:00 7 3 Sudeste 8 Este 0 968 -- 98
2020-11-13 05:00:00 7.3 6 Nordeste 11 Este 0 967.7 -- 98
2020-11-13 04:00:00 7.3 7 Norte 11 Sudeste 0 968 -- 98
2020-11-13 03:00:00 7.7 9 Sur 11 Sur 0 968 -- 97
2020-11-13 02:00:00 7.9 7 Sudeste 8 Sudeste 0 968.5 -- 97
2020-11-13 01:00:00 7.5 0 Calma 5 Sudeste 0 969.1 -- 97
2020-11-13 00:00:00 7 4 Este 8 Sudeste 0 969 -- 97
2020-11-12 23:00:00 7.2 4 Este 13 Sudeste 0 969 -- 97
2020-11-12 22:00:00 7.2 5 Sudeste 9 Sudeste 0 968.9 -- 96
2020-11-12 21:00:00 7.8 8 Sur 13 Sur 0 968.5 -- 94
2020-11-12 20:00:00 9 11 Sur 13 Sur 0 968.5 -- 91
2020-11-12 19:00:00 9.7 4 Sudeste 9 Sudoeste 0 968.4 -- 90
2020-11-12 18:00:00 11 5 Sudeste 17 Sudeste 0 968.2 -- 85
2020-11-12 17:00:00 12.5 11 Sudeste 18 Sudeste 0 968.2 -- 79
2020-11-12 16:00:00 13.7 10 Sudeste 18 Sudeste 0 968.2 -- 73
2020-11-12 15:00:00 13.7 14 Sudeste 21 Sudeste 0 968.4 -- 72
2020-11-12 14:00:00 13.8 9 Sudeste 17 Sudeste 0 968.9 -- 71
2020-11-12 13:00:00 13.3 4 Noroeste 11 Sudeste 0 969.5 -- 74
2020-11-12 12:00:00 10.7 3 Noroeste 8 Noroeste 0 970.5 -- 84
2020-11-12 11:00:00 8.3 4 Noroeste 8 Oeste 0 970.8 -- 97
2020-11-12 10:00:00 7.2 3 Nordeste 8 Este 0 970.8 -- 98
2020-11-12 09:00:00 7.2 3 Este 9 Sudeste 0 970.8 -- 98
2020-11-12 08:00:00 7.3 0 Calma 8 Sudoeste 0 970.3 -- 98
2020-11-12 07:00:00 7.5 4 Sudoeste 8 Sudeste 0 970 -- 98
2020-11-12 06:00:00 7.6 4 Sudoeste -- -- -- 969.9 -- 99
2020-11-12 05:00:00 7.7 8 Sudeste 11 Sudeste 0 969.9 -- 99
2020-11-12 04:00:00 7.8 5 Sudeste 13 Sudeste 0 970.2 -- 99
2020-11-12 03:00:00 7 6 Sudeste 9 Sudeste 0 970.6 -- 98
2020-11-12 02:00:00 7.1 5 Noroeste 8 Norte 0 970.5 -- 98
2020-11-12 01:00:00 7.1 5 Oeste 8 Oeste 0 970.5 -- 97
2020-11-12 00:00:00 7.3 2 Nordeste 8 Este 0 970.4 -- 97
2020-11-11 23:00:00 7.7 0 Calma 8 Oeste 0 970.4 -- 96
2020-11-11 22:00:00 8.4 4 Sudeste 8 Este 0 969.8 -- 94
2020-11-11 21:00:00 8.7 6 Nordeste 13 Sur 0 970 -- 94
2020-11-11 20:00:00 8.9 3 Sur 13 Nordeste 0 970 -- 94
2020-11-11 19:00:00 8.9 7 Nordeste 11 Nordeste 0 969.7 -- 94
2020-11-11 18:00:00 10.3 3 Este 11 Noroeste 0 969.1 -- 90
2020-11-11 17:00:00 11.9 11 Noroeste 18 Norte 0 969.4 -- 85
2020-11-11 16:00:00 14.1 6 Noroeste 11 Noroeste 0 969 -- 76
2020-11-11 15:00:00 13.7 7 Noroeste 17 Sur 0 969.1 -- 77
2020-11-11 14:00:00 14.6 12 Sur 21 Sudeste 0 969.6 -- 71
2020-11-11 13:00:00 13 4 Este 11 Este 0 970.2 -- 77
2020-11-11 12:00:00 11.2 3 Oeste 11 Noroeste 0 971.2 -- 82
2020-11-11 11:00:00 9.7 5 Oeste 9 Sudoeste 0 971.6 -- 89
2020-11-11 10:00:00 7 2 Oeste 5 Oeste 0 971.9 -- 99
2020-11-11 09:00:00 4.1 0 Calma 5 Nordeste 0 972.6 -- 99
2020-11-11 08:00:00 3 4 Sur 8 Sudeste 0 972.3 -- 99
2020-11-11 07:00:00 3.2 0 Calma 8 Oeste 0 972.4 -- 99
2020-11-11 06:00:00 3 4 Oeste 8 Oeste 0 972.5 -- 98
2020-11-11 05:00:00 3.7 3 Sur 8 Sudeste 0 972.4 -- 98
2020-11-11 04:00:00 4.3 2 Sur 11 Sudeste 0 972.7 -- 98
2020-11-11 03:00:00 4.5 3 Oeste 5 Oeste 0 973.6 -- 98
2020-11-11 02:00:00 5.2 4 Sudeste 5 Sudeste 0 973.5 -- 97
2020-11-11 01:00:00 5.9 5 Sudoeste 8 Sur 0 974 -- 96
2020-11-11 00:00:00 6.2 3 Sur -- -- -- 974 -- 95
2020-11-10 23:00:00 7.4 4 Sur -- -- 0 974.3 -- 95
2020-11-10 22:00:00 7.9 2 Este 5 Oeste 0 974 -- 93
2020-11-10 21:00:00 8.7 0 Calma 5 Oeste 0 973.3 -- 92
2020-11-10 20:00:00 9.9 2 Sudoeste 9 Oeste 0 973.5 -- 88
2020-11-10 19:00:00 11.2 8 Noroeste 24 Norte 0 973.4 -- 83
2020-11-10 18:00:00 12.6 17 Noroeste 24 Noroeste 0 973.3 -- 77
2020-11-10 17:00:00 14.7 18 Noroeste 26 Norte 0 972.9 -- 68
2020-11-10 16:00:00 16.3 17 Noroeste 28 Noroeste 0 972.6 -- 60
2020-11-10 15:00:00 16.6 19 Noroeste 28 Norte 0 973 -- 60
2020-11-10 14:00:00 16.9 20 Noroeste 30 Noroeste 0 973.2 -- 64
2020-11-10 13:00:00 16.1 20 Noroeste 30 Norte 0 973.8 -- 67
2020-11-10 12:00:00 15.9 6 Norte 11 Norte 0 974 -- 71
2020-11-10 11:00:00 13.3 4 Oeste 11 Oeste 0 974.1 -- 81
2020-11-10 10:00:00 10.6 3 Este 9 Sudeste 0 974.1 -- 88
2020-11-10 09:00:00 7.5 3 Sudeste 5 Este 0 973.9 -- 99
2020-11-10 08:00:00 4.6 4 Este 8 Este 0 973.4 -- 99
2020-11-10 07:00:00 4.3 4 Sur 8 Sur 0 972.7 -- 99
2020-11-10 06:00:00 5.1 4 Sudeste 5 Sudeste 0 972.5 -- 99
2020-11-10 05:00:00 5.5 0 Calma 5 Sudoeste 0 972.2 -- 99
2020-11-10 04:00:00 5.7 2 Sudeste 5 Nordeste 0 972.1 -- 99
2020-11-10 03:00:00 4.9 5 Sudeste 8 Sudeste 0 972.1 -- 98
2020-11-10 02:00:00 6.2 2 Sudoeste 4 Sudeste 0 971.8 -- 98
2020-11-10 01:00:00 6.6 0 Calma 8 Sudoeste 0 972 -- 97
2020-11-10 00:00:00 7 2 Sur 5 Sur 0 971.6 -- 97
2020-11-09 23:00:00 7.8 0 Calma 5 Este 0 971.4 -- 97
2020-11-09 22:00:00 8.5 3 Sur 5 Sudeste 0 971.2 -- 96
2020-11-09 21:00:00 9.1 5 Sudeste 8 Sur 0 970.7 -- 94
2020-11-09 20:00:00 10.2 5 Sur 9 Sur 0 970.5 -- 92
2020-11-09 19:00:00 11.3 2 Este 8 Sudoeste 0 970 -- 89
2020-11-09 18:00:00 13.2 5 Noroeste 9 Oeste 0 969.5 -- 83
2020-11-09 17:00:00 16 5 Sudoeste 11 Sudeste 0 969 -- 68
2020-11-09 16:00:00 15.9 6 Sur 11 Sur 0 968.8 -- 67
2020-11-09 15:00:00 15.8 6 Sudeste 11 Sudeste 0 968.6 -- 67
2020-11-09 14:00:00 13.9 4 Este 13 Este 0 968.8 -- 75
2020-11-09 13:00:00 12.5 5 Este 9 Este 0.2 969.2 -- 83
2020-11-09 12:00:00 12 4 Noroeste 11 Noroeste 0.1 969.8 -- 88
2020-11-09 11:00:00 12.1 5 Oeste 11 Nordeste 0 969.4 -- 83
2020-11-09 10:00:00 10.9 4 Nordeste 9 Norte 0 969.1 -- 84
2020-11-09 09:00:00 9.8 5 Oeste 8 Sudoeste 0 968.6 -- 87
2020-11-09 08:00:00 8.8 4 Noroeste 8 Oeste 0 968.1 -- 89
2020-11-09 07:00:00 8.8 7 Oeste -- -- -- 967.7 -- 88
2020-11-09 06:00:00 8.7 5 Oeste 9 Oeste 0 967.2 -- 88
2020-11-09 05:00:00 8.7 6 Noroeste 9 Norte 0 967.1 -- 86
2020-11-09 04:00:00 8.6 5 Oeste 9 Oeste 0 967.3 -- 87
2020-11-09 03:00:00 9.7 4 Oeste 32 Sudeste 0 967.4 -- 81
2020-11-09 02:00:00 11 14 Sudeste -- -- -- 967.2 -- 74
2020-11-09 01:00:00 9.8 3 Sudeste 22 Sudeste 0 967.7 -- 79
2020-11-09 00:00:00 10.7 8 Sur 21 Sudeste 0 967.9 -- 75
2020-11-08 23:00:00 9.8 4 Oeste 17 Este 0 967.9 -- 81
2020-11-08 22:00:00 12.2 12 Este 22 Este 0 967.8 -- 70
2020-11-08 21:00:00 11.3 8 Oeste 18 Este 0 967.6 -- 75
2020-11-08 20:00:00 12.9 13 Sudeste 26 Sudeste 0 967.4 -- 68
2020-11-08 19:00:00 13.6 13 Sudeste 30 Sudeste 0 967.7 -- 69
2020-11-08 18:00:00 14 16 Sudeste 28 Sudeste 0 967.2 -- 69
2020-11-08 17:00:00 15.1 16 Sudeste 26 Sudeste 0 967.3 -- 66
2020-11-08 16:00:00 15.6 17 Sudeste 28 Sudeste 0 967.4 -- 64
2020-11-08 15:00:00 15.2 17 Sudeste 30 Sudeste 0 967.5 -- 67
2020-11-08 14:00:00 15.7 16 Sudeste 24 Sudeste 0 968 -- 67
2020-11-08 13:00:00 15.2 12 Sudeste 32 Sudeste 0 968.7 -- 67
2020-11-08 12:00:00 15.1 18 Sudeste 32 Sudeste 0 968.9 -- 68
2020-11-08 11:00:00 13.5 3 Este 9 Nordeste 0 969.3 -- 79
2020-11-08 10:00:00 11.5 3 Norte 8 Norte 0 969.6 -- 90
2020-11-08 09:00:00 9.2 3 Noroeste 9 Norte 0 969.5 -- 97
2020-11-08 08:00:00 7.6 4 Norte 11 Sudeste 0 969.1 -- 96
2020-11-08 07:00:00 7.9 2 Nordeste 9 Sudeste 0 968.9 -- 99
2020-11-08 06:00:00 7.7 3 Este 5 Este 0 968.9 -- 98
2020-11-08 05:00:00 8.7 4 Noroeste 8 Nordeste 0 968.7 -- 98
2020-11-08 04:00:00 9.2 5 Noroeste 9 Oeste 0 968.8 -- 97
2020-11-08 03:00:00 10.4 3 Nordeste 8 Nordeste 0 969 -- 98
2020-11-08 02:00:00 10 4 Este -- -- -- 969 -- 98
2020-11-08 01:00:00 10.3 0 Calma 9 Sudoeste 0 968.8 -- 98
2020-11-08 00:00:00 10.8 0 Calma 9 Norte 0 968.5 -- 98
2020-11-07 23:00:00 10.9 7 Oeste 11 Norte 0 968.3 -- 96
2020-11-07 22:00:00 11.8 8 Oeste 9 Oeste 0 967.9 -- 96
2020-11-07 21:00:00 11.8 3 Nordeste 13 Nordeste 0 967.3 -- 96
2020-11-07 20:00:00 11.9 9 Nordeste 15 Sudeste 0 966.8 -- 95
2020-11-07 19:00:00 12.6 8 Este 24 Oeste 3.8 965.8 -- 95
2020-11-07 18:00:00 13.6 9 Noroeste 18 Sur 0.5 965.4 -- 87
2020-11-07 17:00:00 13.8 15 Sur 21 Sudeste 0 964.6 -- 85
2020-11-07 16:00:00 15.1 8 Sudeste 32 Sur 0 964.1 -- 76
2020-11-07 15:00:00 15.1 17 Sur 30 Sur 0 963.7 -- 76
2020-11-07 14:00:00 15 16 Sur -- -- -- 963.6 -- 78
2020-11-07 13:00:00 14.6 4 Sudoeste 26 Sudeste 0 963.6 -- 84
2020-11-07 12:00:00 13.7 22 Sudeste 33 Sudeste 0 963.5 -- 85
2020-11-07 11:00:00 13 19 Sudeste 37 Sudeste 0.6 963.1 -- 90
2020-11-07 10:00:00 12.1 4 Noroeste 22 Este 4.1 963 -- 93
2020-11-07 09:00:00 12 7 Norte 46 Sur 5.6 962.6 -- 93
2020-11-07 08:00:00 12.6 37 Sur 74 Sur 3.6 961.9 -- 86
2020-11-07 07:00:00 16.9 30 Sudeste 72 Sudeste 0 959.9 -- 64
2020-11-07 06:00:00 17.1 18 Este 37 Este 0 961.2 -- 64
2020-11-07 05:00:00 16.9 25 Sudeste 42 Sudeste 0 962.2 -- 68
2020-11-07 04:00:00 17.5 33 Sudeste 61 Sur 0 963.2 -- 64
2020-11-07 03:00:00 17.1 28 Sudeste 52 Sudeste 0 962.9 -- 66
2020-11-07 02:00:00 16.9 27 Sudeste -- -- -- 963 -- 67
2020-11-07 01:00:00 17.2 19 Sudeste 67 Sudeste 0 963.7 -- 66
2020-11-07 00:00:00 17.3 40 Sudeste 59 Sur 0 963.8 -- 65
2020-11-06 23:00:00 17.4 28 Sudeste 55 Sudeste 0 963.9 -- 65
2020-11-06 22:00:00 17.4 31 Sudeste 52 Sudeste 0 964.7 -- 64
2020-11-06 21:00:00 17.2 22 Sudeste 42 Sudeste 0 964.9 -- 65
2020-11-06 20:00:00 17.3 26 Sudeste 54 Sur 0 965 -- 65
2020-11-06 19:00:00 17.5 21 Este 52 Sudeste 0 965.1 -- 64
2020-11-06 18:00:00 17.3 39 Este 63 Este 0 964.8 -- 65
2020-11-06 17:00:00 17.3 33 Sudeste 52 Sudeste 0 965.4 -- 65
2020-11-06 16:00:00 17.7 24 Sudeste 42 Sur 0 966.3 -- 64
2020-11-06 15:00:00 18.4 24 Sudeste 42 Sudeste 0 966.7 -- 62
2020-11-06 14:00:00 18.4 18 Sudeste 50 Sudeste 0 967.7 -- 62
2020-11-06 13:00:00 18.6 25 Sudeste 39 Sur 0 968.5 -- 62
2020-11-06 12:00:00 18.1 24 Sudeste 42 Sur 0 969.3 -- 64
2020-11-06 11:00:00 17 22 Sudeste 41 Este 0 969.5 0 68
2020-11-06 10:00:00 16.5 25 Sudeste 42 Sudeste 0 969.7 -- 70
2020-11-06 09:00:00 15.8 23 Sudeste 37 Este 0 969.5 -- 73
2020-11-06 08:00:00 14.9 14 Sudeste 30 Sudeste 0 969.5 -- 75
2020-11-06 07:00:00 14.6 17 Este 22 Este 0 969.4 -- 75
2020-11-06 06:00:00 14.2 13 Sudeste 24 Sudeste 0 969.3 -- 77
2020-11-06 05:00:00 11.9 5 Norte 11 Norte 0 969.1 -- 89
2020-11-06 04:00:00 12.1 7 Norte 15 Sur 0 969.2 -- 88
2020-11-06 03:00:00 13.5 5 Sudeste 18 Sudeste 0 969.4 -- 79
2020-11-06 02:00:00 13.4 8 Sudeste -- -- -- 969 -- 79
2020-11-06 01:00:00 13.1 14 Sudeste 24 Este 0.1 969.2 -- 79
2020-11-06 00:00:00 12.8 10 Sur 15 Sudeste 0 969.7 -- 78
2020-11-05 23:00:00 13.1 7 Sudeste 21 Este 0 969.9 -- 72
2020-11-05 22:00:00 14.2 17 Este 35 Este 0 969.9 -- 68
2020-11-05 21:00:00 11.6 10 Este 17 Este 0 970.3 -- 81
2020-11-05 20:00:00 11.8 4 Norte 18 Nordeste 0 970.9 -- 80
2020-11-05 19:00:00 12.2 5 Norte 17 Sur 0 970.9 -- 77
2020-11-05 18:00:00 13.2 10 Sur 18 Sudoeste 0 970.5 -- 72
2020-11-05 17:00:00 15.1 10 Sur 24 Sur 0 970.6 -- 65
2020-11-05 16:00:00 15.3 17 Sur 28 Sudoeste 0 970.7 -- 63
2020-11-05 15:00:00 16 17 Sudoeste 30 Sudoeste 0 970.9 -- 61
2020-11-05 14:00:00 16.6 7 Sur 18 Sur 0 971.6 -- 56
2020-11-05 13:00:00 14.4 3 Norte 9 Nordeste 0 972.2 -- 61
2020-11-05 12:00:00 13 5 Este 9 Nordeste 0 973.2 -- 63
2020-11-05 11:00:00 11.2 4 Nordeste 8 Nordeste 0 973.9 -- 69
2020-11-05 10:00:00 9.3 4 Nordeste 9 Nordeste 0 973.7 -- 76
2020-11-05 09:00:00 7.9 3 Este 8 Nordeste 0 973.5 -- 80
2020-11-05 08:00:00 5.9 3 Nordeste 8 Nordeste 0 973.5 -- 91
2020-11-05 07:00:00 5.9 3 Nordeste 5 Norte 0 973.1 -- 88
2020-11-05 06:00:00 6.5 3 Oeste -- -- 0 973.2 -- 90
2020-11-05 05:00:00 6.7 4 Noroeste 5 Noroeste 0 973.4 -- 85
2020-11-05 04:00:00 7 0 Calma 9 Nordeste 0 973.4 -- 85
2020-11-05 03:00:00 6.9 2 Noroeste -- -- 0 973.8 -- 89
2020-11-05 02:00:00 7 -- -- -- -- 0 973.6 -- 86
2020-11-05 01:00:00 6.9 5 Oeste 9 Noroeste 0 973.6 -- 86
2020-11-05 00:00:00 6.7 5 Noroeste 9 Noroeste 0 973.6 -- 88
2020-11-04 23:00:00 6.5 6 Oeste 11 Noroeste 0 973.3 -- 88
2020-11-04 22:00:00 6.8 9 Oeste 15 Oeste 0 972.9 -- 89
2020-11-04 21:00:00 6.8 10 Oeste 17 Oeste 0 972.3 -- 91
2020-11-04 20:00:00 6.7 11 Oeste 15 Noroeste 0 972 -- 94
2020-11-04 19:00:00 6.9 10 Noroeste 17 Noroeste 0 971.5 -- 94
2020-11-04 18:00:00 7.2 9 Noroeste 17 Norte 0 970.8 -- 92
2020-11-04 17:00:00 8.3 9 Noroeste 18 Nordeste 0 970.5 -- 79
2020-11-04 16:00:00 8.1 18 Nordeste 28 Nordeste 0 970.2 -- 80
2020-11-04 15:00:00 9.2 20 Nordeste 26 Nordeste 0 969.9 -- 69
2020-11-04 14:00:00 10 13 Nordeste 21 Nordeste 0 970.3 -- 62
2020-11-04 13:00:00 10.4 15 Noroeste 24 Noroeste 0 970.5 -- 63
2020-11-04 12:00:00 10.5 12 Noroeste 18 Noroeste 0 970.6 -- 61
2020-11-04 11:00:00 9 11 Noroeste 21 Norte 0 970.7 0.1 66
2020-11-04 10:00:00 7.9 12 Noroeste 18 Noroeste 0 970.7 -- 73
2020-11-04 09:00:00 5.5 12 Noroeste 21 Noroeste 0 970.7 -- 83
2020-11-04 08:00:00 5.1 10 Noroeste 22 Noroeste 0 970.6 -- 83
2020-11-04 07:00:00 4.7 12 Noroeste 21 Noroeste 0 970.8 -- 86
2020-11-04 06:00:00 5.1 10 Noroeste 18 Noroeste 0 971.3 -- 85
2020-11-04 05:00:00 6.3 13 Noroeste 26 Noroeste 0 971.8 -- 83
2020-11-04 04:00:00 6.8 15 Noroeste 24 Norte 0 972.4 -- 83
2020-11-04 03:00:00 6.4 15 Noroeste 24 Noroeste 0 973.1 -- 83
2020-11-04 02:00:00 6.2 16 Norte 22 Noroeste 0 973.7 -- 85
2020-11-04 01:00:00 6.6 14 Noroeste 22 Noroeste 0 974.8 -- 85
2020-11-04 00:00:00 6.6 11 Noroeste -- -- -- 975.4 -- 87
2020-11-03 23:00:00 7.3 17 Noroeste 24 Noroeste 0 975.9 -- 82
2020-11-03 22:00:00 8.1 16 Norte 28 Norte 0 976.4 -- 78
2020-11-03 21:00:00 8.2 18 Norte 35 Norte 0 976.5 -- 79
2020-11-03 20:00:00 8.7 22 Norte 33 Norte 0 976.4 -- 81
2020-11-03 19:00:00 8.6 17 Noroeste 35 Norte 0 976.5 -- 90
2020-11-03 18:00:00 9.5 26 Norte 39 Norte 0 976.1 -- 81
2020-11-03 17:00:00 10.6 20 Norte 39 Norte 0 975.6 -- 78
2020-11-03 16:00:00 11.1 21 Norte 37 Norte 0 975.4 -- 81
2020-11-03 15:00:00 12.9 24 Norte 37 Norte 0 975.4 -- 69
2020-11-03 14:00:00 13.3 20 Norte 41 Norte 0 975.5 -- 66
2020-11-03 13:00:00 12.5 23 Norte 39 Norte 0 976.1 -- 69
2020-11-03 12:00:00 11.6 22 Norte 32 Norte 0 976.2 -- 76
2020-11-03 11:00:00 10.7 18 Norte 32 Norte 0 976.2 -- 80
2020-11-03 10:00:00 10.7 15 Norte 33 Noroeste 0 975.8 -- 82
2020-11-03 09:00:00 10.3 19 Noroeste 30 Noroeste 0 975 -- 86
2020-11-03 08:00:00 10 19 Norte 35 Noroeste 0 974.2 -- 87
2020-11-03 07:00:00 10.3 18 Norte 30 Norte 0.1 973.5 -- 92
2020-11-03 06:00:00 10.6 20 Noroeste 33 Norte 0.1 973.3 -- 90
2020-11-03 05:00:00 10.9 22 Norte 33 Norte 0 972.9 -- 87
2020-11-03 04:00:00 11.9 19 Noroeste 30 Noroeste 0 972.3 -- 83
2020-11-03 03:00:00 12 18 Noroeste 28 Norte 0 972.2 -- 83
2020-11-03 02:00:00 11.8 12 Noroeste 21 Noroeste 0 971.9 -- 85
2020-11-03 01:00:00 11.5 13 Noroeste 21 Noroeste 0 971.9 -- 87
2020-11-03 00:00:00 11.5 12 Noroeste 21 Noroeste 0 971.9 -- 85
2020-11-02 23:00:00 12 12 Noroeste 22 Noroeste 0 972.1 -- 83
2020-11-02 22:00:00 12.6 16 Noroeste 30 Norte 0 972.2 -- 83
2020-11-02 21:00:00 13.4 20 Norte 30 Norte 0 971.8 -- 79
2020-11-02 20:00:00 14.5 18 Norte 41 Noroeste 0 971.6 -- 76
2020-11-02 19:00:00 16 24 Norte 42 Norte 0 970.6 -- 77
2020-11-02 18:00:00 17.7 30 Norte 42 Norte 0 969.3 -- 73
2020-11-02 17:00:00 20.2 5 Noroeste 15 Oeste 0 968.4 -- 60
2020-11-02 16:00:00 22.2 13 Noroeste 18 Oeste 0 968.6 -- 52
2020-11-02 15:00:00 22.4 10 Oeste 24 Sudoeste 0 968.5 -- 51
2020-11-02 14:00:00 21.7 15 Sudoeste 24 Sudoeste 0 969 -- 54
2020-11-02 13:00:00 20.1 5 Sudoeste 13 Sudoeste 0 969.5 -- 58
2020-11-02 12:00:00 17.5 2 Nordeste 8 Sur 0 969.9 -- 67
2020-11-02 11:00:00 15.7 3 Sur 8 Sur 0 970 -- 76
2020-11-02 10:00:00 13.3 0 Calma 2 Oeste 0 969.7 -- 86
2020-11-02 09:00:00 11 0 Calma 4 Norte 0 969.3 -- 96
2020-11-02 08:00:00 9.8 3 Sur 5 Sudoeste 0 968.6 -- 95
2020-11-02 07:00:00 9.6 0 Calma 5 Sur 0 968.5 -- 95
2020-11-02 06:00:00 10 3 Sudeste 5 Sudoeste 0 968.6 -- 94
2020-11-02 05:00:00 10.7 3 Oeste 4 Oeste 0 968.5 -- 93
2020-11-02 04:00:00 11.1 0 Calma 4 Este 0 968.5 -- 92
2020-11-02 03:00:00 11.4 4 Noroeste 5 Oeste 0 968.8 -- 92
2020-11-02 02:00:00 12.3 2 Norte 8 Norte 0 968.7 -- 89
2020-11-02 01:00:00 12.6 3 Noroeste 8 Oeste 0 969.1 -- 89
2020-11-02 00:00:00 13 0 Calma 11 Nordeste 0 969.3 -- 87
2020-11-01 23:00:00 13 12 Sur 15 Sur 0 969.3 -- 84
2020-11-01 22:00:00 13.6 3 Este 11 Sudeste 0 969.2 -- 81
2020-11-01 21:00:00 14.6 8 Sudeste 11 Sur 0 969 -- 78
2020-11-01 20:00:00 15.4 8 Sudeste 11 Este 0 969.1 -- 75
2020-11-01 19:00:00 16.7 8 Sudeste 13 Sur 0 969.1 -- 68
2020-11-01 18:00:00 18.9 7 Sur 17 Sur 0 968.8 -- 60
2020-11-01 17:00:00 21.4 13 Sur 21 Sur 0 969.1 -- 54
2020-11-01 16:00:00 22.3 12 Sur 17 Sur 0 969.1 -- 52
2020-11-01 15:00:00 22.7 8 Sur 17 Sur 0 969.4 -- 52
2020-11-01 14:00:00 21.7 3 Noroeste 11 Sudoeste 0 970 -- 55
2020-11-01 13:00:00 20.6 4 Oeste 11 Sur 0 970.6 -- 59
2020-11-01 12:00:00 18 3 Noroeste 9 Noroeste 0 971.4 -- 63
2020-11-01 11:00:00 15.7 3 Nordeste 9 Nordeste 0 971.6 -- 68
2020-11-01 10:00:00 12.8 5 Oeste 9 Oeste 0 971.8 -- 79
2020-11-01 09:00:00 9.8 4 Noroeste 8 Noroeste 0 971.5 -- 89
2020-11-01 08:00:00 7.7 4 Sur 11 Sur 0 970.9 -- 93
2020-11-01 07:00:00 7.7 7 Noroeste 9 Noroeste 0 970.7 -- 94
2020-11-01 06:00:00 8.2 7 Sudeste 13 Sur 0 970.5 -- 92
2020-11-01 05:00:00 8.7 13 Sur 18 Sur 0 970.3 -- 89
2020-11-01 04:00:00 8.6 4 Norte 13 Sur 0 970.6 -- 92
2020-11-01 03:00:00 7.7 5 Sudeste 11 Sudeste 0 971 -- 95
2020-11-01 02:00:00 8.4 9 Sur 13 Sur 0 971 -- 92
2020-11-01 01:00:00 8.4 8 Sudeste 9 Sudeste 0 971.3 -- 92
2020-11-01 00:00:00 8.5 4 Oeste -- -- -- 971.6 -- 90
2020-10-31 23:00:00 9.7 6 Sur 9 Sur 0 970.9 -- 87
2020-10-31 22:00:00 10.4 4 Sudeste 5 Sur 0 970.8 -- 86
2020-10-31 21:00:00 10.8 5 Sudeste 13 Sur 0 970.6 -- 85
2020-10-31 20:00:00 12.3 11 Sur -- -- 0 970.8 -- 80
2020-10-31 19:00:00 15 3 Sudoeste 8 Sudoeste 0 970.7 -- 68
2020-10-31 18:00:00 18.4 3 Norte 13 Sur 0 970.1 -- 56
2020-10-31 17:00:00 20.7 10 Sudoeste 18 Sur 0 970 -- 48
2020-10-31 16:00:00 20.8 6 Sur 15 Sur 0 970.4 -- 52
2020-10-31 15:00:00 19.9 3 Sudoeste 13 Norte 0 970.7 -- 54
2020-10-31 14:00:00 19.3 4 Norte 13 Oeste 0 971.1 -- 56
2020-10-31 13:00:00 17.8 4 Nordeste 11 Este 0 971.2 -- 61
2020-10-31 12:00:00 15.4 5 Nordeste 11 Nordeste 0 972.3 -- 66
2020-10-31 11:00:00 12.6 3 Sudoeste 9 Oeste 0 973 -- 76
2020-10-31 10:00:00 9.7 4 Sudeste 9 Noroeste 0 973.2 -- 86
2020-10-31 09:00:00 6.4 6 Oeste 9 Sudoeste 0 972.9 -- 96
2020-10-31 08:00:00 4.2 4 Noroeste 15 Sur 0 972.5 -- 98
2020-10-31 07:00:00 4.3 9 Sur 13 Sur 0 972.3 -- 98
2020-10-31 06:00:00 4.6 4 Noroeste 9 Oeste 0 972.5 -- 98
2020-10-31 05:00:00 5 6 Oeste 11 Norte 0 971.9 -- 98
2020-10-31 04:00:00 5.5 7 Sudeste 9 Sudeste 0 971.9 -- 97
2020-10-31 03:00:00 5.4 3 Sudeste 8 Sur 0 972.3 -- 96
2020-10-31 02:00:00 5.7 3 Noroeste 8 Noroeste 0 972.4 -- 95
2020-10-31 01:00:00 6.5 2 Sur 8 Sudeste 0 972.4 -- 94
2020-10-31 00:00:00 7.1 3 Este 5 Este 0 972.5 -- 92
2020-10-30 23:00:00 8.3 2 Sur 8 Nordeste 0 972.5 -- 91
2020-10-30 22:00:00 9.5 0 Calma 8 Sudoeste 0 972.5 -- 91
2020-10-30 21:00:00 10.3 5 Sudeste 11 Sudeste 0 972.2 -- 89
2020-10-30 20:00:00 11.6 2 Sudoeste 8 Sur 0 972.4 -- 85
2020-10-30 19:00:00 13.9 5 Sur 8 Sur 0 971.9 -- 79
2020-10-30 18:00:00 16.7 6 Oeste 9 Noroeste 0 971.4 -- 64
2020-10-30 17:00:00 19.4 7 Noroeste 11 Noroeste 0 971.4 -- 58
2020-10-30 16:00:00 19.7 5 Noroeste 11 Noroeste 0 971.4 -- 57
2020-10-30 15:00:00 19.8 5 Oeste 11 Oeste 0 971.8 -- 57
2020-10-30 14:00:00 18.4 3 Nordeste 9 Nordeste 0 972.1 -- 59
2020-10-30 13:00:00 16.8 4 Norte 9 Norte 0 972.8 -- 64
2020-10-30 12:00:00 14.1 3 Nordeste -- -- -- 973.5 -- 72
2020-10-30 11:00:00 -- -- -- -- -- -- -- -- --
2020-10-30 10:00:00 -- -- -- -- -- -- -- -- --
2020-10-30 09:00:00 5.7 3 Oeste 5 Oeste 0 974.1 -- 98
2020-10-30 08:00:00 4.2 0 Calma 4 Este 0 973.7 -- 99
2020-10-30 07:00:00 4.5 0 Calma 4 Sudeste 0 973.5 -- 98
2020-10-30 06:00:00 4.3 2 Oeste 4 Oeste 0 973.6 -- 98
2020-10-30 05:00:00 5.5 0 Calma 4 Sudoeste 0 973.4 -- 98
2020-10-30 04:00:00 5.3 0 Calma 4 Sudoeste 0 973.4 -- 98
2020-10-30 03:00:00 5.8 0 Calma 5 Sudoeste 0 973.4 -- 97
2020-10-30 02:00:00 6.6 0 Calma 4 Norte 0 973.5 -- 96
2020-10-30 01:00:00 7.3 0 Calma 5 Sudoeste 0 973.6 -- 95
2020-10-30 00:00:00 8.3 0 Calma 4 Norte 0 973.6 -- 93
2020-10-29 23:00:00 9.1 2 Sur 5 Sur 0 973.4 -- 91
2020-10-29 22:00:00 9.8 2 Sudeste 5 Sur 0 973.2 -- 89
2020-10-29 21:00:00 10.8 0 Calma 8 Sur 0 972.9 -- 87
2020-10-29 20:00:00 11.9 4 Sudeste 11 Sur 0 972.7 -- 84
2020-10-29 19:00:00 13.3 6 Sur 8 Sur 0 972.2 -- 77
2020-10-29 18:00:00 16.9 4 Sudoeste 8 Oeste 0 971.6 -- 61
2020-10-29 17:00:00 18.4 0 Calma 9 Noroeste 0 971.6 -- 52
2020-10-29 16:00:00 18.9 5 Noroeste 11 Noroeste 0 971.6 -- 53
2020-10-29 15:00:00 19 4 Este 13 Norte 0 972 -- 53
2020-10-29 14:00:00 19.1 4 Sudoeste 13 Oeste 0 972.6 -- 53
2020-10-29 13:00:00 18 4 Sur 11 Sudeste 0 973.1 -- 56
2020-10-29 12:00:00 15.8 5 Sudeste 9 Sudeste 0 973.8 -- 62
2020-10-29 11:00:00 13.3 3 Este 8 Nordeste 0 974.1 -- 70
2020-10-29 10:00:00 11.4 4 Sudeste 8 Sudeste 0 973.8 -- 78
2020-10-29 09:00:00 8.9 4 Sudeste 8 Sur 0 973.7 -- 90
2020-10-29 08:00:00 6.4 0 Calma 8 Este 0 973.2 -- 96
2020-10-29 07:00:00 7 5 Sudeste 8 Sudeste 0 972.7 -- 93
2020-10-29 06:00:00 7.8 3 Sudeste 5 Norte 0 972.9 -- 92
2020-10-29 05:00:00 8.5 4 Oeste 8 Oeste 0 972.8 -- 91
2020-10-29 04:00:00 8.1 -- -- -- -- 0 972.3 -- 91
2020-10-29 03:00:00 7.5 3 Este 8 Este 0 972.5 -- 92
2020-10-29 02:00:00 7.4 0 Calma 9 Nordeste 0 972.6 -- 90
2020-10-29 01:00:00 7.7 6 Nordeste 9 Nordeste 0 972.3 -- 90
2020-10-29 00:00:00 8.3 7 Este 11 Este 0 971.8 -- 89
2020-10-28 23:00:00 9.7 5 Nordeste 9 Norte 0 971.9 -- 86
2020-10-28 22:00:00 10.8 4 Sudeste 5 Sudeste 0 971.2 -- 82
2020-10-28 21:00:00 12.3 0 Calma 11 Noroeste 0 971 -- 77
2020-10-28 20:00:00 13 9 Norte 22 Noroeste 0 970.7 -- 75
2020-10-28 19:00:00 13.6 14 Noroeste 24 Noroeste 0 970 -- 73
2020-10-28 18:00:00 14.7 18 Norte 26 Norte 0 968.9 -- 75
2020-10-28 17:00:00 16.3 10 Norte 15 Noroeste 0 968.2 -- 69
2020-10-28 16:00:00 17.1 9 Norte 13 Norte 0 968.3 -- 67
2020-10-28 15:00:00 17.2 5 Oeste 11 Nordeste 0 967.9 -- 66
2020-10-28 14:00:00 15.6 4 Nordeste 11 Este 0 968.2 -- 74
2020-10-28 13:00:00 13.8 5 Norte 9 Norte 0 968.7 -- 81
2020-10-28 12:00:00 12.8 8 Nordeste 11 Nordeste 0 968.8 -- 82
2020-10-28 11:00:00 12.1 0 Calma 9 Sur 0 968.5 -- 78
2020-10-28 10:00:00 11.5 6 Sudeste 9 Sudeste 0 967.8 -- 84
2020-10-28 09:00:00 11 3 Nordeste 8 Oeste 0 967.1 -- 84
2020-10-28 08:00:00 10.6 2 Oeste 8 Nordeste 0 966.1 -- 86
2020-10-28 07:00:00 10.6 4 Sudeste 13 Sur 0 965.5 -- 83
2020-10-28 06:00:00 10.6 2 Sudeste 21 Sur 0 965.3 -- 83
2020-10-28 05:00:00 10.7 9 Sur 15 Sur 0 965.1 -- 80
2020-10-28 04:00:00 10.2 7 Sur 13 Sudeste 0 965 -- 83
2020-10-28 03:00:00 9.9 11 Sur 17 Sudeste 0 964.9 -- 82
2020-10-28 02:00:00 10.8 3 Sudeste 18 Sur 0 965.4 -- 78
2020-10-28 01:00:00 10.4 14 Sur 18 Sur 0 965.1 -- 79
2020-10-28 00:00:00 11 13 Sur 21 Sur 0 965.2 -- 78
2020-10-27 23:00:00 11.6 12 Sur 18 Sur 0 965.1 -- 78
2020-10-27 22:00:00 11.8 13 Sur 22 Sudoeste 0 964.9 -- 78
2020-10-27 21:00:00 12.9 12 Sudoeste 24 Sudoeste 0 964.4 -- 72
2020-10-27 20:00:00 12.4 13 Sur 24 Sur 0 964 -- 74
2020-10-27 19:00:00 12.2 12 Sudeste 17 Sudeste 0 963.9 -- 78
2020-10-27 18:00:00 13 13 Sudoeste 30 Oeste 0 963.8 -- 71
2020-10-27 17:00:00 13.4 13 Sur 24 Sur 0 963.2 -- 63
2020-10-27 16:00:00 13.8 16 Sur 26 Sur 0 963.1 -- 62
2020-10-27 15:00:00 14.2 15 Sur 22 Sur 0 963.1 -- 63
2020-10-27 14:00:00 13.3 13 Sur 22 Sur 0 963.6 -- 64
2020-10-27 13:00:00 12.4 15 Sur 22 Sur 0 963.9 -- 68
2020-10-27 12:00:00 12.1 4 Sudoeste 18 Sur 0 964.3 -- 70
2020-10-27 11:00:00 9.9 8 Sur 15 Sur 0 964.3 -- 84
2020-10-27 10:00:00 7 3 Nordeste 8 Nordeste 0 964.6 -- 95
2020-10-27 09:00:00 5.7 0 Calma 4 Sudoeste 0 964.6 -- 98
2020-10-27 08:00:00 4.1 0 Calma -- -- -- 964.3 -- 98
2020-10-27 07:00:00 4.2 3 Sur 8 Sur 0 964.1 -- 97
2020-10-27 06:00:00 4.6 6 Sudeste 9 Sudeste 0 964.2 -- 98
2020-10-27 05:00:00 4.6 5 Sudoeste 9 Sudoeste 0 964.3 -- 98
2020-10-27 04:00:00 4.2 3 Este 9 Nordeste 0 964.3 -- 98
2020-10-27 03:00:00 4.8 0 Calma 5 Oeste 0 964.7 -- 97
2020-10-27 02:00:00 5.4 3 Sur 9 Sudeste 0 964.7 -- 96
2020-10-27 01:00:00 5.4 4 Noroeste 9 Sudoeste 0 965 -- 96
2020-10-27 00:00:00 5.3 0 Calma 8 Sudoeste 0 964.9 -- 95
2020-10-26 23:00:00 5.9 3 Sur 8 Este 0 965.1 -- 92
2020-10-26 22:00:00 6.7 4 Este 9 Sudeste 0 965 -- 90
2020-10-26 21:00:00 7.3 5 Sur 13 Sur 0 964.8 -- 84
2020-10-26 20:00:00 7.6 11 Este 15 Sudeste 0 964.5 -- 86
2020-10-26 19:00:00 9.2 12 Nordeste 18 Norte 0 964.4 -- 81
2020-10-26 18:00:00 9.9 5 Norte 26 Noroeste 0 963.7 -- 77
2020-10-26 17:00:00 9.6 3 Sudeste 11 Sur 0 963.3 -- 79
2020-10-26 16:00:00 8.8 5 Norte 39 Norte 0.7 963.1 -- 85
2020-10-26 15:00:00 10 13 Norte 26 Norte 0.1 962.5 -- 81
2020-10-26 14:00:00 11.4 4 Sudoeste 15 Noroeste 0 962.5 -- 69
2020-10-26 13:00:00 11.4 7 Noroeste 15 Norte 0 962.7 -- 70
2020-10-26 12:00:00 9.7 5 Nordeste 11 Este 0 962.9 -- 75
2020-10-26 11:00:00 9.2 3 Sur 13 Sudeste 0 962.6 -- 76
2020-10-26 10:00:00 8 4 Sudeste 17 Nordeste 0 962.3 -- 82
2020-10-26 09:00:00 7 7 Norte 17 Norte 0.2 961.9 -- 90
2020-10-26 08:00:00 5.8 4 Sudoeste 11 Sur 0 960.6 -- 93
2020-10-26 07:00:00 5.8 6 Sudoeste 9 Sudoeste 0 959.8 -- 93
2020-10-26 06:00:00 5.8 2 Este 8 Este 0 959.1 -- 94
2020-10-26 05:00:00 6.1 3 Sur 8 Sudeste 0 958.8 -- 93
2020-10-26 04:00:00 6.7 2 Noroeste 9 Sudoeste 0 958.4 -- 94
2020-10-26 03:00:00 7.5 7 Sudeste 11 Sudeste 0 958.6 -- 93
2020-10-26 02:00:00 7.7 5 Este 11 Este 0 958.7 -- 93
2020-10-26 01:00:00 7.9 -- -- -- -- -- 958.9 -- 93
2020-10-26 00:00:00 8.2 9 Sur 11 Sur 0 958.7 -- 92